createdAt,value
2018-10-11T00:00:46.178Z,98651.84
2018-10-11T00:03:13.387Z,98656.46
2018-10-11T00:05:40.571Z,98654.10
2018-10-11T00:08:08.240Z,98652.95
2018-10-11T00:10:35.434Z,98654.28
2018-10-11T00:13:02.634Z,98654.55
2018-10-11T00:15:29.799Z,98659.78
2018-10-11T00:17:56.946Z,98666.98
2018-10-11T00:20:24.116Z,98667.95
2018-10-11T00:22:51.338Z,98673.33
2018-10-11T00:25:18.507Z,98675.42
2018-10-11T00:27:45.689Z,98675.28
2018-10-11T00:30:12.919Z,98677.60
2018-10-11T00:32:40.410Z,98676.61
2018-10-11T00:35:07.717Z,98667.28
2018-10-11T00:37:34.885Z,98670.50
2018-10-11T00:40:02.125Z,98673.22
2018-10-11T00:42:29.302Z,98673.19
2018-10-11T00:44:56.452Z,98676.20
2018-10-11T00:47:23.590Z,98670.42
2018-10-11T00:49:50.806Z,98659.16
2018-10-11T00:52:17.960Z,98658.98
2018-10-11T00:54:45.167Z,98650.05
2018-10-11T00:57:12.327Z,98647.55
2018-10-11T00:59:39.489Z,98652.65
2018-10-11T01:02:06.608Z,98663.26
2018-10-11T01:04:33.776Z,98650.02
2018-10-11T01:07:00.913Z,98651.35
2018-10-11T01:09:28.208Z,98639.09
2018-10-11T01:11:55.284Z,98625.30
2018-10-11T01:14:22.437Z,98621.61
2018-10-11T01:16:49.622Z,98626.71
2018-10-11T01:19:16.944Z,98627.01
2018-10-11T01:21:44.154Z,98631.16
2018-10-11T01:24:11.294Z,98620.56
2018-10-11T01:26:38.486Z,98625.59
2018-10-11T01:29:05.643Z,98627.33
2018-10-11T01:31:32.837Z,98631.52
2018-10-11T01:33:59.965Z,98621.83
2018-10-11T01:36:27.163Z,98610.34
2018-10-11T01:38:54.370Z,98615.89
2018-10-11T01:41:21.495Z,98623.78
2018-10-11T01:43:48.622Z,98614.34
2018-10-11T01:46:15.775Z,98611.65
2018-10-11T01:48:42.872Z,98607.36
2018-10-11T01:51:10.240Z,98601.74
2018-10-11T01:53:37.412Z,98597.29
2018-10-11T01:56:04.621Z,98597.77
2018-10-11T01:58:31.772Z,98611.31
2018-10-11T02:00:58.960Z,98615.20
2018-10-11T02:03:26.110Z,98619.59
2018-10-11T02:05:53.261Z,98613.01
2018-10-11T02:08:20.385Z,98607.17
2018-10-11T02:10:47.545Z,98602.80
2018-10-11T02:13:14.711Z,98600.13
2018-10-11T02:15:41.827Z,98614.47
2018-10-11T02:18:08.998Z,98610.20
2018-10-11T02:20:36.109Z,98605.02
2018-10-11T02:23:03.273Z,98602.32
2018-10-11T02:25:30.530Z,98604.16
2018-10-11T02:27:57.814Z,98601.22
2018-10-11T02:30:24.976Z,98599.41
2018-10-11T02:32:52.213Z,98596.52
2018-10-11T02:35:19.403Z,98595.06
2018-10-11T02:37:46.583Z,98598.78
2018-10-11T02:40:13.716Z,98596.16
2018-10-11T02:42:40.871Z,98592.98
2018-10-11T02:45:08.132Z,98589.03
2018-10-11T02:47:35.585Z,98588.94
2018-10-11T02:50:02.734Z,98590.68
2018-10-11T02:52:29.943Z,98587.73
2018-10-11T02:54:57.083Z,98586.98
2018-10-11T02:57:35.943Z,98589.50
2018-10-11T03:00:03.748Z,98594.06
2018-10-11T03:02:31.399Z,98601.55
2018-10-11T03:04:58.606Z,98606.70
2018-10-11T03:07:26.654Z,98606.91
2018-10-11T03:09:53.838Z,98603.52
2018-10-11T03:12:20.972Z,98609.77
2018-10-11T03:14:48.116Z,98609.22
2018-10-11T03:17:15.246Z,98607.40
2018-10-11T03:19:42.677Z,98612.42
2018-10-11T03:22:10.237Z,98613.77
2018-10-11T03:24:37.362Z,98612.45
2018-10-11T03:27:04.529Z,98617.97
2018-10-11T03:29:31.720Z,98620.58
2018-10-11T03:31:58.874Z,98623.23
2018-10-11T03:34:27.305Z,98625.38
2018-10-11T03:36:54.882Z,98632.48
2018-10-11T03:39:22.044Z,98632.79
2018-10-11T03:41:49.296Z,98623.55
2018-10-11T03:44:16.431Z,98622.02
2018-10-11T03:46:43.541Z,98617.72
2018-10-11T03:49:10.703Z,98619.31
2018-10-11T03:51:37.935Z,98560.95
2018-10-11T03:54:05.082Z,98627.71
2018-10-11T03:56:32.309Z,98626.20
2018-10-11T03:58:59.645Z,98633.97
2018-10-11T04:01:26.856Z,98625.34
2018-10-11T04:03:54.449Z,98621.95
2018-10-11T04:06:21.602Z,98615.78
2018-10-11T04:08:48.749Z,98619.44
2018-10-11T04:11:15.890Z,98580.72
2018-10-11T04:13:43.655Z,98623.41
2018-10-11T04:16:10.886Z,98620.87
2018-10-11T04:18:38.274Z,98621.59
2018-10-11T04:21:05.683Z,98627.41
2018-10-11T04:23:32.853Z,98629.25
2018-10-11T04:26:00.527Z,98625.25
2018-10-11T04:28:28.526Z,98621.80
2018-10-11T04:30:56.460Z,98628.13
2018-10-11T04:33:23.684Z,98636.57
2018-10-11T04:35:50.814Z,98633.98
2018-10-11T04:38:17.977Z,98636.13
2018-10-11T04:40:45.165Z,98638.27
2018-10-11T04:43:12.876Z,98636.42
2018-10-11T04:45:40.546Z,98647.24
2018-10-11T04:48:07.709Z,98643.55
2018-10-11T04:50:34.880Z,98644.09
2018-10-11T04:53:02.029Z,98648.84
2018-10-11T04:55:29.179Z,98651.17
2018-10-11T04:57:56.447Z,98651.74
2018-10-11T05:00:24.010Z,98647.33
2018-10-11T05:02:51.191Z,98646.22
2018-10-11T05:05:18.353Z,98653.35
2018-10-11T05:07:45.502Z,98660.25
2018-10-11T05:10:12.764Z,98657.38
2018-10-11T05:12:39.877Z,98667.16
2018-10-11T05:15:07.031Z,98673.15
2018-10-11T05:17:34.185Z,98678.86
2018-10-11T05:20:01.440Z,98673.61
2018-10-11T05:22:28.612Z,98676.47
2018-10-11T05:24:55.794Z,98677.78
2018-10-11T05:27:23.012Z,98673.28
2018-10-11T05:29:50.184Z,98684.95
2018-10-11T05:32:17.434Z,98684.97
2018-10-11T05:34:44.562Z,98681.81
2018-10-11T05:37:11.770Z,98690.36
2018-10-11T05:39:38.939Z,98686.69
2018-10-11T05:42:06.038Z,98684.63
2018-10-11T05:44:33.553Z,98684.05
2018-10-11T05:47:00.646Z,98679.27
2018-10-11T05:49:27.877Z,98688.47
2018-10-11T05:51:55.098Z,98690.43
2018-10-11T05:54:22.221Z,98681.20
2018-10-11T05:56:50.321Z,98696.83
2018-10-11T05:59:17.425Z,98700.57
2018-10-11T06:01:44.855Z,98699.27
2018-10-11T06:04:12.119Z,98690.83
2018-10-11T06:06:39.788Z,98695.30
2018-10-11T06:09:08.318Z,98703.73
2018-10-11T06:11:35.523Z,98710.86
2018-10-11T06:14:03.318Z,98714.82
2018-10-11T06:16:30.537Z,98719.59
2018-10-11T06:18:57.783Z,98726.73
2018-10-11T06:21:25.183Z,98727.30
2018-10-11T06:23:52.337Z,98730.47
2018-10-11T06:26:19.556Z,98741.80
2018-10-11T06:28:46.893Z,98746.58
2018-10-11T06:31:14.178Z,98744.73
2018-10-11T06:33:42.866Z,98752.42
2018-10-11T06:36:10.145Z,98747.94
2018-10-11T06:38:37.357Z,98747.66
2018-10-11T06:41:04.593Z,98749.77
2018-10-11T06:43:31.846Z,98745.01
2018-10-11T06:45:58.969Z,98760.30
2018-10-11T06:48:26.205Z,98768.48
2018-10-11T06:50:53.435Z,98761.58
2018-10-11T06:53:20.878Z,98762.42
2018-10-11T06:55:48.212Z,98769.28
2018-10-11T06:58:15.403Z,98662.69
2018-10-11T07:00:42.566Z,98781.18
2018-10-11T07:03:09.848Z,98780.13
2018-10-11T07:05:37.574Z,98781.92
2018-10-11T07:08:04.885Z,98778.75
2018-10-11T07:10:32.035Z,98778.41
2018-10-11T07:12:59.283Z,98769.94
2018-10-11T07:15:26.912Z,98768.82
2018-10-11T07:17:54.090Z,98777.49
2018-10-11T07:20:21.305Z,98777.70
2018-10-11T07:22:48.521Z,98780.58
2018-10-11T07:25:15.668Z,98778.09
2018-10-11T07:27:42.948Z,98775.90
2018-10-11T07:30:10.210Z,98777.70
2018-10-11T07:32:37.359Z,98788.71
2018-10-11T07:35:04.743Z,98793.38
2018-10-11T07:37:32.005Z,98785.89
2018-10-11T07:39:59.211Z,98785.97
2018-10-11T07:42:26.690Z,98787.69
2018-10-11T07:44:53.888Z,98791.56
2018-10-11T07:47:22.044Z,98792.77
2018-10-11T07:49:54.972Z,98807.72
2018-10-11T07:52:22.165Z,98795.63
2018-10-11T07:54:49.339Z,98795.58
2018-10-11T07:57:16.702Z,98795.70
2018-10-11T07:59:43.964Z,98798.98
2018-10-11T08:02:11.429Z,98800.70
2018-10-11T08:04:38.864Z,98804.06
2018-10-11T08:07:06.805Z,98797.63
2018-10-11T08:09:33.970Z,98792.55
2018-10-11T08:12:01.318Z,98797.20
2018-10-11T08:14:28.689Z,98795.19
2018-10-11T08:16:56.049Z,98793.22
2018-10-11T08:19:23.398Z,98793.16
2018-10-11T08:21:50.448Z,98788.77
2018-10-11T08:24:17.808Z,98798.66
2018-10-11T08:26:45.063Z,98795.31
2018-10-11T08:29:12.262Z,98793.69
2018-10-11T08:31:39.435Z,98795.44
2018-10-11T08:34:07.124Z,98794.52
2018-10-11T08:36:34.391Z,98800.68
2018-10-11T08:39:01.924Z,98804.31
2018-10-11T08:41:29.182Z,98799.73
2018-10-11T08:43:56.541Z,98803.14
2018-10-11T08:46:23.746Z,98802.84
2018-10-11T08:48:50.997Z,98796.84
2018-10-11T08:51:18.114Z,98800.78
2018-10-11T08:53:45.479Z,98797.45
2018-10-11T08:56:12.618Z,98797.53
2018-10-11T08:58:40.069Z,98802.27
2018-10-11T09:01:07.404Z,98796.09
2018-10-11T09:03:34.646Z,98786.67
2018-10-11T09:06:02.057Z,98788.48
2018-10-11T09:08:29.560Z,98779.80
2018-10-11T09:10:57.461Z,98779.64
2018-10-11T09:13:25.288Z,98782.19
2018-10-11T09:15:52.671Z,98775.31
2018-10-11T09:18:20.003Z,98784.70
2018-10-11T09:20:48.156Z,98791.66
2018-10-11T09:23:15.441Z,98788.67
2018-10-11T09:25:42.657Z,98790.31
2018-10-11T09:28:09.859Z,98790.94
2018-10-11T09:30:37.111Z,98794.86
2018-10-11T09:33:04.420Z,98805.36
2018-10-11T09:35:31.644Z,98805.95
2018-10-11T09:37:58.884Z,98814.13
2018-10-11T09:40:26.158Z,98814.13
2018-10-11T09:42:53.516Z,98819.83
2018-10-11T09:45:20.833Z,98815.12
2018-10-11T09:47:47.979Z,98816.40
2018-10-11T09:50:15.256Z,98820.47
2018-10-11T09:52:42.465Z,98815.86
2018-10-11T09:55:09.775Z,98818.66
2018-10-11T09:57:38.038Z,98811.37
2018-10-11T10:00:13.521Z,98807.73
2018-10-11T10:02:40.725Z,98809.70
2018-10-11T10:05:08.583Z,98812.75
2018-10-11T10:07:35.905Z,98813.23
2018-10-11T10:10:03.621Z,98815.38
2018-10-11T10:12:30.729Z,98822.23
2018-10-11T10:14:58.019Z,98823.09
2018-10-11T10:17:25.279Z,98816.83
2018-10-11T10:19:52.421Z,98823.42
2018-10-11T10:22:19.636Z,98828.43
2018-10-11T10:24:46.887Z,98839.61
2018-10-11T10:27:14.282Z,98837.53
2018-10-11T10:29:41.518Z,98835.23
2018-10-11T10:32:08.854Z,98837.29
2018-10-11T10:34:36.079Z,98845.39
2018-10-11T10:37:03.497Z,98839.91
2018-10-11T10:39:30.691Z,98841.23
2018-10-11T10:41:58.036Z,98842.33
2018-10-11T10:44:25.225Z,98834.02
2018-10-11T10:46:52.395Z,98819.92
2018-10-11T10:49:19.606Z,98816.09
2018-10-11T10:51:46.808Z,98814.36
2018-10-11T10:54:19.616Z,98821.11
2018-10-11T10:56:46.778Z,98817.56
2018-10-11T10:59:13.970Z,98811.14
2018-10-11T11:01:41.210Z,98814.10
2018-10-11T11:04:08.527Z,98813.13
2018-10-11T11:06:35.818Z,98803.00
2018-10-11T11:09:04.420Z,98801.17
2018-10-11T11:11:31.563Z,98800.28
2018-10-11T11:13:58.873Z,98796.86
2018-10-11T11:16:26.053Z,98792.48
2018-10-11T11:18:53.345Z,98787.84
2018-10-11T11:21:20.463Z,98780.19
2018-10-11T11:23:47.652Z,98779.75
2018-10-11T11:26:14.902Z,98775.47
2018-10-11T11:28:43.005Z,98768.63
2018-10-11T11:31:10.363Z,98763.39
2018-10-11T11:33:38.277Z,98761.42
2018-10-11T11:36:05.962Z,98754.39
2018-10-11T11:38:33.347Z,98753.41
2018-10-11T11:41:00.578Z,98749.92
2018-10-11T11:43:27.769Z,98751.93
2018-10-11T11:45:54.916Z,98751.25
2018-10-11T11:48:22.151Z,98756.34
2018-10-11T11:50:49.685Z,98748.65
2018-10-11T11:53:17.681Z,98751.45
2018-10-11T11:55:44.868Z,98749.09
2018-10-11T11:58:12.079Z,98742.76
2018-10-11T12:00:39.342Z,98748.03
2018-10-11T12:03:06.623Z,98750.28
2018-10-11T12:05:33.882Z,98759.70
2018-10-11T12:08:01.150Z,98759.83
2018-10-11T12:10:28.588Z,98763.72
2018-10-11T12:12:57.020Z,98760.22
2018-10-11T12:15:25.619Z,98756.06
2018-10-11T12:17:54.107Z,98748.84
2018-10-11T12:20:22.799Z,98740.16
2018-10-11T12:22:50.001Z,98738.14
2018-10-11T12:25:17.455Z,98743.77
2018-10-11T12:27:44.710Z,98737.33
2018-10-11T12:30:12.278Z,98746.98
2018-10-11T12:32:39.578Z,98737.84
2018-10-11T12:35:06.917Z,98736.39
2018-10-11T12:37:34.259Z,98740.87
2018-10-11T12:40:01.493Z,98752.67
2018-10-11T12:42:29.030Z,98744.61
2018-10-11T12:44:56.217Z,98749.31
2018-10-11T12:47:23.578Z,98742.38
2018-10-11T12:49:50.760Z,98747.07
2018-10-11T12:52:17.929Z,98748.87
2018-10-11T12:54:45.239Z,98750.77
2018-10-11T12:57:16.185Z,98742.93
2018-10-11T12:59:39.609Z,98747.85
2018-10-11T13:02:06.875Z,98747.40
2018-10-11T13:04:34.272Z,98751.86
2018-10-11T13:07:01.467Z,98752.77
2018-10-11T13:09:28.759Z,98746.70
2018-10-11T13:11:55.932Z,98746.47
2018-10-11T13:14:23.330Z,98743.31
2018-10-11T13:16:50.618Z,98740.30
2018-10-11T13:19:17.836Z,98735.70
2018-10-11T13:21:45.167Z,98739.88
2018-10-11T13:24:12.409Z,98739.21
2018-10-11T13:26:39.605Z,98734.15
2018-10-11T13:29:06.898Z,98733.92
2018-10-11T13:31:34.041Z,98733.58
2018-10-11T13:34:01.253Z,98734.92
2018-10-11T13:36:28.442Z,98737.39
2018-10-11T13:38:55.859Z,98730.55
2018-10-11T13:41:23.426Z,98732.43
2018-10-11T13:43:50.675Z,98733.55
2018-10-11T13:46:17.977Z,98733.00
2018-10-11T13:48:45.223Z,98731.54
2018-10-11T13:51:12.440Z,98731.89
2018-10-11T13:53:40.494Z,98729.95
2018-10-11T13:56:07.923Z,98727.17
2018-10-11T13:58:35.289Z,98728.86
2018-10-11T14:01:03.341Z,98730.77
2018-10-11T14:03:30.594Z,98734.81
2018-10-11T14:05:57.862Z,98732.50
2018-10-11T14:08:25.426Z,98729.91
2018-10-11T14:10:52.729Z,98731.55
2018-10-11T14:13:20.779Z,98736.37
2018-10-11T14:15:47.070Z,98729.28
2018-10-11T14:18:14.386Z,98732.52
2018-10-11T14:20:41.805Z,98729.05
2018-10-11T14:23:09.299Z,98727.16
2018-10-11T14:25:36.679Z,98725.53
2018-10-11T14:28:04.464Z,98728.94
2018-10-11T14:30:31.861Z,98728.53
2018-10-11T14:32:59.106Z,98401.63
2018-10-11T14:35:26.304Z,98726.98
2018-10-11T14:37:53.515Z,98733.85
2018-10-11T14:40:20.730Z,98738.15
2018-10-11T14:42:48.493Z,98736.22
2018-10-11T14:45:16.413Z,98736.22
2018-10-11T14:47:43.718Z,98727.01
2018-10-11T14:50:10.980Z,98734.17
2018-10-11T14:52:38.409Z,98738.01
2018-10-11T14:55:06.678Z,98729.38
2018-10-11T14:57:34.483Z,98726.80
2018-10-11T15:00:02.036Z,98726.25
2018-10-11T15:02:29.277Z,98722.56
2018-10-11T15:04:56.484Z,98723.70
2018-10-11T15:07:23.867Z,98727.52
2018-10-11T15:09:51.129Z,98734.13
2018-10-11T15:12:18.503Z,98727.95
2018-10-11T15:14:45.839Z,98734.56
2018-10-11T15:17:13.151Z,98739.19
2018-10-11T15:19:40.446Z,98737.70
2018-10-11T15:22:07.824Z,98738.94
2018-10-11T15:24:35.729Z,98736.57
2018-10-11T15:27:02.901Z,98734.88
2018-10-11T15:29:30.288Z,98741.83
2018-10-11T15:31:57.439Z,98737.89
2018-10-11T15:34:24.854Z,98739.81
2018-10-11T15:36:51.999Z,98747.42
2018-10-11T15:39:19.298Z,98748.12
2018-10-11T15:41:46.598Z,98743.20
2018-10-11T15:44:14.246Z,98744.34
2018-10-11T15:46:41.992Z,98743.89
2018-10-11T15:49:09.408Z,98743.89
2018-10-11T15:51:37.006Z,98742.56
2018-10-11T15:54:04.281Z,98750.39
2018-10-11T15:56:31.522Z,98753.98
2018-10-11T15:58:58.857Z,98749.27
2018-10-11T16:01:26.184Z,98744.46
2018-10-11T16:03:53.618Z,98744.37
2018-10-11T16:06:21.096Z,98746.39
2018-10-11T16:08:48.610Z,98747.19
2018-10-11T16:11:15.876Z,98741.48
2018-10-11T16:13:43.411Z,98747.97
2018-10-11T16:16:10.625Z,98753.56
2018-10-11T16:18:37.794Z,98755.59
2018-10-11T16:21:05.017Z,98754.47
2018-10-11T16:23:32.306Z,98762.70
2018-10-11T16:25:59.554Z,98767.97
2018-10-11T16:28:26.945Z,98770.87
2018-10-11T16:30:54.194Z,98773.89
2018-10-11T16:33:21.391Z,98769.83
2018-10-11T16:35:48.706Z,98768.37
2018-10-11T16:38:15.869Z,98769.80
2018-10-11T16:40:43.093Z,98771.23
2018-10-11T16:43:10.282Z,98771.63
2018-10-11T16:45:37.579Z,98781.00
2018-10-11T16:48:04.874Z,98780.30
2018-10-11T16:50:32.221Z,98783.72
2018-10-11T16:52:59.960Z,98789.95
2018-10-11T16:55:27.247Z,98793.37
2018-10-11T16:57:54.426Z,98801.62
2018-10-11T17:00:21.638Z,98802.16
2018-10-11T17:02:49.053Z,98807.82
2018-10-11T17:05:16.404Z,98808.58
2018-10-11T17:07:43.751Z,98815.59
2018-10-11T17:10:10.942Z,98813.34
2018-10-11T17:12:38.236Z,98810.77
2018-10-11T17:15:05.586Z,98811.41
2018-10-11T17:17:32.834Z,98811.50
2018-10-11T17:19:59.993Z,98813.02
2018-10-11T17:22:27.130Z,98806.52
2018-10-11T17:24:54.479Z,98806.00
2018-10-11T17:27:21.891Z,98801.26
2018-10-11T17:29:49.203Z,98800.78
2018-10-11T17:32:16.582Z,98808.98
2018-10-11T17:34:43.707Z,98805.34
2018-10-11T17:37:11.585Z,98805.34
2018-10-11T17:39:38.826Z,98803.33
2018-10-11T17:42:06.070Z,98804.28
2018-10-11T17:44:33.210Z,98807.59
2018-10-11T17:47:00.586Z,98810.69
2018-10-11T17:49:27.759Z,98809.05
2018-10-11T17:51:56.390Z,98817.57
2018-10-11T17:54:23.778Z,98820.98
2018-10-11T17:56:51.211Z,98821.01
2018-10-11T17:59:18.829Z,98824.50
2018-10-11T18:01:46.204Z,98827.08
2018-10-11T18:04:13.478Z,98825.05
2018-10-11T18:06:40.591Z,98830.27
2018-10-11T18:09:08.897Z,98837.33
2018-10-11T18:11:36.636Z,98835.81
2018-10-11T18:14:04.607Z,98836.06
2018-10-11T18:16:32.007Z,98832.34
2018-10-11T18:18:59.270Z,98833.14
2018-10-11T18:21:27.132Z,98837.66
2018-10-11T18:23:54.432Z,98838.74
2018-10-11T18:26:21.683Z,98838.24
2018-10-11T18:28:49.115Z,98844.25
2018-10-11T18:31:16.368Z,98842.98
2018-10-11T18:33:43.929Z,98851.08
2018-10-11T18:36:11.287Z,98855.42
2018-10-11T18:38:38.506Z,98856.11
2018-10-11T18:41:06.836Z,98857.70
2018-10-11T18:43:34.067Z,98870.20
2018-10-11T18:46:01.323Z,98870.20
2018-10-11T18:48:28.586Z,98875.95
2018-10-11T18:50:55.839Z,98880.19
2018-10-11T18:53:23.037Z,98888.00
2018-10-11T18:55:51.471Z,98892.95
2018-10-11T18:58:18.653Z,98896.09
2018-10-11T19:00:45.955Z,98888.31
2018-10-11T19:03:13.182Z,98892.21
2018-10-11T19:05:40.508Z,98889.13
2018-10-11T19:08:07.814Z,98891.18
2018-10-11T19:10:35.247Z,98894.72
2018-10-11T19:13:02.626Z,98895.33
2018-10-11T19:15:29.992Z,98884.55
2018-10-11T19:17:57.468Z,98882.48
2018-10-11T19:20:24.618Z,98876.66
2018-10-11T19:22:52.194Z,98871.25
2018-10-11T19:25:19.524Z,98879.81
2018-10-11T19:27:46.724Z,98871.25
2018-10-11T19:30:13.975Z,98875.58
2018-10-11T19:32:41.191Z,98876.12
2018-10-11T19:35:08.505Z,98881.56
2018-10-11T19:37:35.764Z,98791.20
2018-10-11T19:40:03.065Z,98893.61
2018-10-11T19:42:30.307Z,98891.44
2018-10-11T19:44:57.523Z,98893.86
2018-10-11T19:47:24.858Z,98892.12
2018-10-11T19:49:52.373Z,98895.49
2018-10-11T19:52:19.612Z,98892.19
2018-10-11T19:54:47.558Z,98891.70
2018-10-11T19:57:14.794Z,98905.45
2018-10-11T19:59:42.121Z,98909.46
2018-10-11T20:02:09.453Z,98914.96
2018-10-11T20:04:36.968Z,98922.79
2018-10-11T20:07:04.188Z,98917.03
2018-10-11T20:09:31.415Z,98912.29
2018-10-11T20:11:58.917Z,98900.11
2018-10-11T20:14:26.175Z,98902.30
2018-10-11T20:16:53.400Z,98903.89
2018-10-11T20:19:20.721Z,98896.70
2018-10-11T20:21:48.147Z,98892.73
2018-10-11T20:24:15.511Z,98890.66
2018-10-11T20:26:42.753Z,98886.40
2018-10-11T20:29:09.968Z,98888.11
2018-10-11T20:31:37.897Z,98889.28
2018-10-11T20:34:07.614Z,98898.03
2018-10-11T20:36:35.045Z,98900.13
2018-10-11T20:39:02.339Z,98897.53
2018-10-11T20:41:29.737Z,98898.86
2018-10-11T20:43:57.118Z,98900.31
2018-10-11T20:46:24.554Z,98908.22
2018-10-11T20:48:51.884Z,98911.31
2018-10-11T20:51:19.296Z,98912.08
2018-10-11T20:53:46.548Z,98908.27
2018-10-11T20:56:13.906Z,98913.78
2018-10-11T20:58:41.183Z,98913.78
2018-10-11T21:01:08.386Z,98919.97
2018-10-11T21:03:35.577Z,98920.72
2018-10-11T21:06:02.821Z,98918.05
2018-10-11T21:08:30.143Z,98917.36
2018-10-11T21:10:57.438Z,98916.22
2018-10-11T21:13:24.846Z,98919.66
2018-10-11T21:15:52.454Z,98921.05
2018-10-11T21:18:19.775Z,98929.21
2018-10-11T21:20:46.983Z,98936.11
2018-10-11T21:23:14.339Z,98942.42
2018-10-11T21:25:41.564Z,98946.14
2018-10-11T21:28:08.820Z,98944.27
2018-10-11T21:30:35.954Z,98957.30
2018-10-11T21:33:03.166Z,98964.94
2018-10-11T21:35:30.357Z,98974.48
2018-10-11T21:37:57.610Z,98964.52
2018-10-11T21:40:24.840Z,98957.89
2018-10-11T21:42:52.813Z,98945.77
2018-10-11T21:45:20.050Z,98946.45
2018-10-11T21:47:47.275Z,98960.00
2018-10-11T21:50:14.481Z,98950.48
2018-10-11T21:52:41.814Z,98956.32
2018-10-11T21:55:08.986Z,98958.23
2018-10-11T21:57:36.215Z,98961.05
2018-10-11T22:05:00.714Z,98958.35
2018-10-11T22:07:28.067Z,98959.41
2018-10-11T22:09:56.080Z,98962.56
2018-10-11T22:12:24.474Z,98959.36
2018-10-11T22:14:51.776Z,98958.30
2018-10-11T22:17:19.047Z,98958.22
2018-10-11T22:19:46.340Z,98951.11
2018-10-11T22:22:13.562Z,98954.34
2018-10-11T22:24:40.750Z,98955.23
2018-10-11T22:27:07.938Z,98961.01
2018-10-11T22:29:35.119Z,98971.41
2018-10-11T22:32:02.281Z,98971.75
2018-10-11T22:34:29.633Z,98968.64
2018-10-11T22:36:56.876Z,98969.21
2018-10-11T22:39:24.119Z,98971.17
2018-10-11T22:41:51.358Z,98966.08
2018-10-11T22:44:18.527Z,98967.76
2018-10-11T22:46:45.788Z,98967.91
2018-10-11T22:49:12.978Z,98972.78
2018-10-11T22:51:40.316Z,98971.89
2018-10-11T22:54:08.655Z,98984.58
2018-10-11T22:56:35.826Z,98986.23
2018-10-11T22:59:03.033Z,99001.25
2018-10-11T23:01:30.201Z,99006.62
2018-10-11T23:03:57.410Z,99013.28
2018-10-11T23:06:24.705Z,99022.10
2018-10-11T23:08:51.874Z,99030.17
2018-10-11T23:11:19.111Z,99027.50
2018-10-11T23:13:46.283Z,99035.80
2018-10-11T23:16:13.608Z,99040.32
2018-10-11T23:18:41.236Z,99039.79
2018-10-11T23:21:08.453Z,99042.98
2018-10-11T23:23:35.705Z,99053.14
2018-10-11T23:26:02.957Z,99054.50
2018-10-11T23:28:30.145Z,99048.52
2018-10-11T23:30:57.348Z,99052.55
2018-10-11T23:33:24.550Z,99061.93
2018-10-11T23:35:51.881Z,99062.77
2018-10-11T23:38:19.011Z,99070.58
2018-10-11T23:40:46.226Z,99065.67
2018-10-11T23:43:13.520Z,99076.35
2018-10-11T23:45:40.741Z,99078.78
2018-10-11T23:48:07.901Z,99083.33
2018-10-11T23:50:35.310Z,99085.16
2018-10-11T23:53:02.514Z,99089.98
2018-10-11T23:55:31.350Z,99084.39
2018-10-11T23:57:59.080Z,99080.64
